Time;durP1;ratioP1;P1;durP2;ratioP2;P2;SDS_P1;SDS_P2;PMS_P1;PMS_P2;Temp;Humidity;BMP_temperature;BMP_pressure;BME280_temperature;BME280_humidity;BME280_pressure;Samples;Min_cycle;Max_cycle;Signal;HPM_P1;HPM_P2
2022/04/17 00:00:40;;;;;;;0.17;0.10;;;;;;;;;;4142511;28;1097083;-33
2022/04/17 00:02:41;;;;;;;0.00;0.00;;;;;;;;;;4181002;28;20488;-36
2022/04/17 00:04:43;;;;;;;0.10;0.10;;;;;;;;;;4179522;28;20508;-34
2022/04/17 00:06:44;;;;;;;0.20;0.10;;;;;;;;;;4181034;28;20057;-32
2022/04/17 00:08:45;;;;;;;0.38;0.25;;;;;;;;;;4180447;28;20503;-33
2022/04/17 00:10:47;;;;;;;0.20;0.15;;;;;;;;;;4180853;28;20087;-33
2022/04/17 00:12:48;;;;;;;0.32;0.10;;;;;;;;;;4181005;28;20044;-38
2022/04/17 00:14:50;;;;;;;0.10;0.10;;;;;;;;;;4180784;28;20045;-33
2022/04/17 00:16:51;;;;;;;0.10;0.10;;;;;;;;;;4180894;28;20099;-33
2022/04/17 00:18:52;;;;;;;0.10;0.10;;;;;;;;;;4180683;28;20061;-34
2022/04/17 00:20:53;;;;;;;0.05;0.05;;;;;;;;;;4180780;28;20049;-36
2022/04/17 00:22:56;;;;;;;0.30;0.20;;;;;;;;;;4180714;28;20056;-34
2022/04/17 00:24:59;;;;;;;0.10;0.10;;;;;;;;;;4180294;28;20063;-35
2022/04/17 00:27:00;;;;;;;0.10;0.10;;;;;;;;;;4180711;28;20060;-32
2022/04/17 00:29:01;;;;;;;0.17;0.17;;;;;;;;;;4180276;28;20052;-32
2022/04/17 00:31:03;;;;;;;0.10;0.10;;;;;;;;;;4179910;28;20451;-36
2022/04/17 00:33:04;;;;;;;0.05;0.05;;;;;;;;;;4180803;28;20099;-33
2022/04/17 00:35:06;;;;;;;0.30;0.10;;;;;;;;;;4180387;28;20120;-34
2022/04/17 00:37:08;;;;;;;0.00;0.00;;;;;;;;;;4180602;28;20053;-33
2022/04/17 00:39:09;;;;;;;0.10;0.10;;;;;;;;;;4179912;28;20063;-33
2022/04/17 00:41:11;;;;;;;0.10;0.10;;;;;;;;;;4180517;28;20056;-32
2022/04/17 00:43:32;;;;;;;0.20;0.10;;;;;;;;;;4178974;28;20489;-32
2022/04/17 00:45:33;;;;;;;0.10;0.10;;;;;;;;;;4180426;28;20390;-32
2022/04/17 00:47:35;;;;;;;0.32;0.10;;;;;;;;;;4180244;28;20560;-35
2022/04/17 00:49:36;;;;;;;0.20;0.10;;;;;;;;;;4175529;28;20048;-33
2022/04/17 00:51:38;;;;;;;0.17;0.10;;;;;;;;;;4167174;28;20436;-33
2022/04/17 00:53:39;;;;;;;0.20;0.10;;;;;;;;;;4177852;28;20394;-33
2022/04/17 00:55:40;;;;;;;0.10;0.10;;;;;;;;;;4178303;28;20075;-31
2022/04/17 00:57:41;;;;;;;0.32;0.15;;;;;;;;;;4176798;28;20107;-37
2022/04/17 00:59:45;;;;;;;0.10;0.10;;;;;;;;;;4176339;28;20549;-34
2022/04/17 01:01:46;;;;;;;0.10;0.10;;;;;;;;;;4177660;28;20492;-35
2022/04/17 01:03:51;;;;;;;0.10;0.10;;;;;;;;;;4177819;28;20505;-32
2022/04/17 01:05:52;;;;;;;0.20;0.10;;;;;;;;;;4178019;28;20515;-34
2022/04/17 01:07:53;;;;;;;0.40;0.05;;;;;;;;;;4175808;28;20053;-33
2022/04/17 01:09:55;;;;;;;0.20;0.20;;;;;;;;;;4145795;28;20049;-39
2022/04/17 01:11:57;;;;;;;0.17;0.10;;;;;;;;;;4172867;28;20048;-32
2022/04/17 01:13:59;;;;;;;0.28;0.15;;;;;;;;;;4163789;28;20061;-33
2022/04/17 01:16:05;;;;;;;0.47;0.10;;;;;;;;;;4163547;28;20107;-35
2022/04/17 01:18:06;;;;;;;0.10;0.10;;;;;;;;;;4162182;28;20155;-33
2022/04/17 01:20:08;;;;;;;0.10;0.10;;;;;;;;;;4163354;28;20086;-33
2022/04/17 01:22:11;;;;;;;0.10;0.10;;;;;;;;;;4163320;28;20053;-32
2022/04/17 01:28:51;;;;;;;;;;;;;;;;;;4171599;28;19979;-31
2022/04/17 01:30:53;;;;;;;0.10;0.00;;;;;;;;;;4167560;28;19925;-33
2022/04/17 01:32:54;;;;;;;0.40;0.20;;;;;;;;;;4171806;28;20068;-34
2022/04/17 01:34:55;;;;;;;0.03;0.00;;;;;;;;;;4176115;28;20087;-35
2022/04/17 01:36:56;;;;;;;0.35;0.10;;;;;;;;;;4177740;28;20067;-35
2022/04/17 01:38:58;;;;;;;0.20;0.10;;;;;;;;;;4167319;28;20065;-32
2022/04/17 01:40:59;;;;;;;0.20;0.10;;;;;;;;;;4162886;28;20448;-31
2022/04/17 01:43:01;;;;;;;0.05;0.05;;;;;;;;;;4163050;28;20421;-34
2022/04/17 01:45:02;;;;;;;0.22;0.10;;;;;;;;;;4162827;28;20061;-34
2022/04/17 01:47:03;;;;;;;0.17;0.10;;;;;;;;;;4163011;28;20064;-32
2022/04/17 01:49:04;;;;;;;0.10;0.10;;;;;;;;;;4163137;28;20108;-34
2022/04/17 01:51:06;;;;;;;0.10;0.10;;;;;;;;;;4162966;28;20053;-34
2022/04/17 01:53:08;;;;;;;0.10;0.10;;;;;;;;;;4162921;28;20057;-35
2022/04/17 01:55:09;;;;;;;0.52;0.20;;;;;;;;;;4161359;28;20068;-33
2022/04/17 01:57:10;;;;;;;0.10;0.10;;;;;;;;;;4163246;28;20111;-33
2022/04/17 01:59:12;;;;;;;0.00;0.00;;;;;;;;;;4162899;28;20485;-34
2022/04/17 02:01:14;;;;;;;0.20;0.10;;;;;;;;;;4161676;28;20103;-34
2022/04/17 02:03:15;;;;;;;0.20;0.10;;;;;;;;;;4163082;28;20107;-31
2022/04/17 02:05:16;;;;;;;0.10;0.10;;;;;;;;;;4162951;28;20112;-34
2022/04/17 02:07:17;;;;;;;0.00;0.00;;;;;;;;;;4172489;28;20053;-35
2022/04/17 02:09:18;;;;;;;0.10;0.10;;;;;;;;;;4172289;28;20457;-33
2022/04/17 02:11:20;;;;;;;0.10;0.10;;;;;;;;;;4165173;28;20088;-32
2022/04/17 02:13:23;;;;;;;0.00;0.00;;;;;;;;;;4161451;28;20563;-31
2022/04/17 02:15:25;;;;;;;0.40;0.20;;;;;;;;;;4162940;28;20057;-34
2022/04/17 02:17:26;;;;;;;1.00;0.10;;;;;;;;;;4162883;28;20072;-35
2022/04/17 02:19:28;;;;;;;0.77;0.35;;;;;;;;;;4162568;28;20060;-33
2022/04/17 02:21:29;;;;;;;0.10;0.10;;;;;;;;;;4162844;28;20049;-32
2022/04/17 02:23:30;;;;;;;0.50;0.05;;;;;;;;;;4162309;28;20485;-33
2022/04/17 02:25:32;;;;;;;0.13;0.00;;;;;;;;;;4162995;28;20058;-34
2022/04/17 02:27:33;;;;;;;0.10;0.10;;;;;;;;;;4162631;28;20489;-35
2022/04/17 02:29:34;;;;;;;1.65;0.10;;;;;;;;;;4170497;28;20057;-35
2022/04/17 02:31:35;;;;;;;0.45;0.10;;;;;;;;;;4165529;28;20382;-33
2022/04/17 02:33:37;;;;;;;0.20;0.10;;;;;;;;;;4162536;28;20547;-33
2022/04/17 02:35:38;;;;;;;0.08;0.08;;;;;;;;;;4162967;28;20057;-33
2022/04/17 02:37:40;;;;;;;0.13;0.10;;;;;;;;;;4165113;28;20061;-31
2022/04/17 02:39:41;;;;;;;0.10;0.10;;;;;;;;;;4178887;28;20103;-35
2022/04/17 02:41:42;;;;;;;0.20;0.20;;;;;;;;;;4179056;28;20061;-35
2022/04/17 02:43:43;;;;;;;0.10;0.10;;;;;;;;;;4178792;28;20501;-35
2022/04/17 02:45:44;;;;;;;0.15;0.15;;;;;;;;;;4179172;28;20060;-34
2022/04/17 02:47:48;;;;;;;0.10;0.10;;;;;;;;;;4179080;28;20053;-32
2022/04/17 02:49:50;;;;;;;0.10;0.10;;;;;;;;;;4178751;28;20057;-33
2022/04/17 02:51:51;;;;;;;0.10;0.10;;;;;;;;;;4179177;28;20068;-32
2022/04/17 02:53:53;;;;;;;0.40;0.10;;;;;;;;;;4180439;28;20413;-31
2022/04/17 02:55:54;;;;;;;0.10;0.10;;;;;;;;;;4182090;28;20083;-33
2022/04/17 02:57:56;;;;;;;0.10;0.10;;;;;;;;;;4182175;28;20053;-31
2022/04/17 02:59:58;;;;;;;0.30;0.20;;;;;;;;;;4181961;28;20057;-35
2022/04/17 03:06:38;;;;;;;0.10;0.10;;;;;;;;;;4165909;28;20053;-33
2022/04/17 03:08:41;;;;;;;0.25;0.10;;;;;;;;;;4170978;28;20056;-33
2022/04/17 03:10:43;;;;;;;0.17;0.10;;;;;;;;;;4175156;28;20385;-36
2022/04/17 03:12:44;;;;;;;0.20;0.20;;;;;;;;;;4168176;28;20104;-34
2022/04/17 03:14:46;;;;;;;0.10;0.10;;;;;;;;;;4165194;28;20479;-34
2022/04/17 03:16:47;;;;;;;0.30;0.13;;;;;;;;;;4165265;28;20054;-34
2022/04/17 03:18:49;;;;;;;0.10;0.10;;;;;;;;;;4165112;28;20095;-34
2022/04/17 03:20:51;;;;;;;0.17;0.17;;;;;;;;;;4164001;28;20053;-32
2022/04/17 03:22:52;;;;;;;0.20;0.10;;;;;;;;;;4165231;28;20057;-33
2022/04/17 03:24:53;;;;;;;0.20;0.20;;;;;;;;;;4177469;28;20079;-34
2022/04/17 03:26:54;;;;;;;0.28;0.20;;;;;;;;;;4181476;28;20053;-33
2022/04/17 03:28:56;;;;;;;0.10;0.10;;;;;;;;;;4181385;28;20056;-32
2022/04/17 03:30:57;;;;;;;0.10;0.10;;;;;;;;;;4181682;28;20083;-35
2022/04/17 03:32:59;;;;;;;0.20;0.20;;;;;;;;;;4181501;28;20126;-35
2022/04/17 03:35:01;;;;;;;0.50;0.13;;;;;;;;;;4181635;28;20056;-34
2022/04/17 03:37:03;;;;;;;0.10;0.10;;;;;;;;;;4181552;28;20320;-34
2022/04/17 03:39:04;;;;;;;0.00;0.00;;;;;;;;;;4179639;28;20489;-33
2022/04/17 03:41:06;;;;;;;0.10;0.10;;;;;;;;;;4175615;28;20393;-33
2022/04/17 03:43:07;;;;;;;0.10;0.10;;;;;;;;;;4164692;28;20485;-36
2022/04/17 03:45:14;;;;;;;0.00;0.00;;;;;;;;;;4165075;28;20057;-35
2022/04/17 03:47:16;;;;;;;0.05;0.05;;;;;;;;;;4164932;28;20148;-31
2022/04/17 03:49:17;;;;;;;0.30;0.10;;;;;;;;;;4169234;28;20052;-34
2022/04/17 03:51:18;;;;;;;0.20;0.20;;;;;;;;;;4169588;28;20053;-33
2022/04/17 03:53:20;;;;;;;0.20;0.20;;;;;;;;;;4164098;28;20060;-33
2022/04/17 03:55:21;;;;;;;0.10;0.00;;;;;;;;;;4163101;28;20120;-35
2022/04/17 03:57:22;;;;;;;0.20;0.10;;;;;;;;;;4164731;28;20060;-34
2022/04/17 03:59:23;;;;;;;0.10;0.10;;;;;;;;;;4172272;28;20447;-33
2022/04/17 04:01:26;;;;;;;0.10;0.10;;;;;;;;;;4181138;28;20064;-33
2022/04/17 04:03:28;;;;;;;0.10;0.10;;;;;;;;;;4180885;28;20106;-35
2022/04/17 04:05:29;;;;;;;0.17;0.13;;;;;;;;;;4179697;28;20103;-31
2022/04/17 04:07:30;;;;;;;0.13;0.10;;;;;;;;;;4181250;28;20059;-36
2022/04/17 04:09:32;;;;;;;0.40;0.10;;;;;;;;;;4177967;28;20056;-35
2022/04/17 04:11:33;;;;;;;0.28;0.13;;;;;;;;;;4171006;28;20108;-32
2022/04/17 04:13:34;;;;;;;0.10;0.10;;;;;;;;;;4180618;28;20053;-32
2022/04/17 04:15:36;;;;;;;0.15;0.15;;;;;;;;;;4180862;28;20106;-34
2022/04/17 04:17:37;;;;;;;0.10;0.10;;;;;;;;;;4180843;28;20049;-34
2022/04/17 04:19:38;;;;;;;0.10;0.10;;;;;;;;;;4176733;28;20057;-35
2022/04/17 04:21:48;;;;;;;0.10;0.10;;;;;;;;;;4171927;28;20127;-35
2022/04/17 04:23:49;;;;;;;0.20;0.10;;;;;;;;;;4178652;28;20061;-32
2022/04/17 04:25:51;;;;;;;0.08;0.08;;;;;;;;;;4180698;28;20064;-33
2022/04/17 04:30:12;;;;;;;0.20;0.20;;;;;;;;;;4180532;28;20064;-32
2022/04/17 04:32:13;;;;;;;0.03;0.03;;;;;;;;;;4179150;28;20045;-33
2022/04/17 04:34:14;;;;;;;0.10;0.00;;;;;;;;;;4180409;28;20104;-32
2022/04/17 04:36:16;;;;;;;0.10;0.10;;;;;;;;;;4180457;28;20087;-34
2022/04/17 04:38:17;;;;;;;0.10;0.10;;;;;;;;;;4179895;28;20118;-32
2022/04/17 04:40:18;;;;;;;0.20;0.10;;;;;;;;;;4180388;28;20045;-32
2022/04/17 04:42:20;;;;;;;0.10;0.10;;;;;;;;;;4180598;28;20065;-33
2022/04/17 04:44:22;;;;;;;0.20;0.10;;;;;;;;;;4180158;28;20061;-35
2022/04/17 04:46:23;;;;;;;0.13;0.08;;;;;;;;;;4180270;28;20053;-34
2022/04/17 04:50:44;;;;;;;;;;;;;;;;;;4181132;28;20049;-33
2022/04/17 04:52:45;;;;;;;0.00;0.00;;;;;;;;;;4180135;28;20446;-37
2022/04/17 04:54:47;;;;;;;0.20;0.10;;;;;;;;;;4179612;28;20154;-34
2022/04/17 04:56:48;;;;;;;0.28;0.20;;;;;;;;;;4180139;28;20558;-32
2022/04/17 04:58:50;;;;;;;0.10;0.10;;;;;;;;;;4173748;28;20053;-32
2022/04/17 05:00:51;;;;;;;0.10;0.10;;;;;;;;;;4172238;28;20523;-31
2022/04/17 05:02:52;;;;;;;0.10;0.10;;;;;;;;;;4163379;28;20061;-33
2022/04/17 05:04:53;;;;;;;0.08;0.08;;;;;;;;;;4163442;28;20099;-31
2022/04/17 05:06:54;;;;;;;0.10;0.10;;;;;;;;;;4169827;28;20099;-32
2022/04/17 05:08:56;;;;;;;0.10;0.10;;;;;;;;;;4179600;28;20065;-32
2022/04/17 05:10:57;;;;;;;0.10;0.10;;;;;;;;;;4180073;28;20052;-36
2022/04/17 05:12:59;;;;;;;0.10;0.10;;;;;;;;;;4179915;28;20052;-33
2022/04/17 05:15:01;;;;;;;0.17;0.10;;;;;;;;;;4178450;28;20110;-33
2022/04/17 05:17:02;;;;;;;0.10;0.10;;;;;;;;;;4179518;28;20649;-32
2022/04/17 05:19:24;;;;;;;0.10;0.10;;;;;;;;;;4179723;28;20049;-33
2022/04/17 05:21:31;;;;;;;0.10;0.10;;;;;;;;;;4179986;28;20049;-33
2022/04/17 05:23:33;;;;;;;0.13;0.13;;;;;;;;;;4178034;28;20110;-32
2022/04/17 05:25:34;;;;;;;0.10;0.10;;;;;;;;;;4179958;28;20060;-31
2022/04/17 05:27:35;;;;;;;0.10;0.10;;;;;;;;;;4179741;28;20096;-32
2022/04/17 05:29:36;;;;;;;0.38;0.00;;;;;;;;;;4178495;28;20076;-30
2022/04/17 05:31:37;;;;;;;0.35;0.15;;;;;;;;;;4179596;28;20103;-31
2022/04/17 05:33:39;;;;;;;0.20;0.15;;;;;;;;;;4179425;28;20706;-30
2022/04/17 05:35:40;;;;;;;0.10;0.10;;;;;;;;;;4179929;28;20057;-33
2022/04/17 05:37:41;;;;;;;0.32;0.10;;;;;;;;;;4179356;28;20056;-32
2022/04/17 05:39:42;;;;;;;0.10;0.10;;;;;;;;;;4179010;28;20276;-34
2022/04/17 05:41:44;;;;;;;0.13;0.13;;;;;;;;;;4179559;28;20103;-32
2022/04/17 05:43:45;;;;;;;0.15;0.15;;;;;;;;;;4179298;28;20052;-31
2022/04/17 05:45:48;;;;;;;0.50;0.10;;;;;;;;;;4179549;28;20053;-31
2022/04/17 05:47:50;;;;;;;0.13;0.13;;;;;;;;;;4178886;28;20151;-38
2022/04/17 05:49:51;;;;;;;0.28;0.10;;;;;;;;;;4176382;28;20056;-37
2022/04/17 05:51:53;;;;;;;0.10;0.10;;;;;;;;;;4177307;28;20507;-31
2022/04/17 05:53:54;;;;;;;0.20;0.10;;;;;;;;;;4177028;28;20091;-33
2022/04/17 05:55:55;;;;;;;0.20;0.10;;;;;;;;;;4175983;28;20060;-33
2022/04/17 05:57:56;;;;;;;0.10;0.10;;;;;;;;;;4177321;28;20061;-33
2022/04/17 05:59:58;;;;;;;0.35;0.20;;;;;;;;;;4176808;28;20459;-32
2022/04/17 06:01:59;;;;;;;0.10;0.10;;;;;;;;;;4177424;28;20582;-34
2022/04/17 06:04:02;;;;;;;0.17;0.15;;;;;;;;;;4177197;28;20086;-32
2022/04/17 06:06:03;;;;;;;0.10;0.10;;;;;;;;;;4177311;28;20065;-31
2022/04/17 06:08:04;;;;;;;0.10;0.10;;;;;;;;;;4175783;28;20056;-34
2022/04/17 06:10:11;;;;;;;0.10;0.10;;;;;;;;;;4176847;28;20405;-35
2022/04/17 06:12:13;;;;;;;0.20;0.17;;;;;;;;;;4176985;28;20127;-32
2022/04/17 06:14:14;;;;;;;0.25;0.10;;;;;;;;;;4177385;28;20561;-33
2022/04/17 06:16:15;;;;;;;0.10;0.10;;;;;;;;;;4176029;28;20397;-33
2022/04/17 06:18:16;;;;;;;0.10;0.10;;;;;;;;;;4177355;28;20053;-31
2022/04/17 06:20:17;;;;;;;0.00;0.00;;;;;;;;;;4175944;28;20061;-33
2022/04/17 06:22:19;;;;;;;0.15;0.10;;;;;;;;;;4177384;28;20095;-35
2022/04/17 06:24:20;;;;;;;0.10;0.10;;;;;;;;;;4176477;28;20119;-32
2022/04/17 06:26:21;;;;;;;0.10;0.10;;;;;;;;;;4177166;28;20104;-31
2022/04/17 06:28:22;;;;;;;0.10;0.10;;;;;;;;;;4178299;28;20523;-36
2022/04/17 06:30:23;;;;;;;0.20;0.10;;;;;;;;;;4180325;28;20067;-33
2022/04/17 06:32:24;;;;;;;0.10;0.08;;;;;;;;;;4179050;28;20578;-34
2022/04/17 06:34:25;;;;;;;0.20;0.10;;;;;;;;;;4178896;28;20060;-31
2022/04/17 06:36:27;;;;;;;0.15;0.13;;;;;;;;;;4175952;28;20069;-31
2022/04/17 06:38:28;;;;;;;0.20;0.10;;;;;;;;;;4165273;28;20057;-33
2022/04/17 06:40:33;;;;;;;0.10;0.10;;;;;;;;;;4165838;28;20057;-36
2022/04/17 06:42:34;;;;;;;0.55;0.10;;;;;;;;;;4164433;28;20390;-34
2022/04/17 06:44:36;;;;;;;0.10;0.10;;;;;;;;;;4165791;28;20049;-32
2022/04/17 06:46:40;;;;;;;0.20;0.20;;;;;;;;;;4165639;28;20193;-33
2022/04/17 06:48:42;;;;;;;0.22;0.10;;;;;;;;;;4165566;28;20054;-31
2022/04/17 06:50:47;;;;;;;0.22;0.10;;;;;;;;;;4164330;28;20081;-36
2022/04/17 06:52:51;;;;;;;0.20;0.20;;;;;;;;;;4148177;28;20050;-34
2022/04/17 06:54:52;;;;;;;0.10;0.10;;;;;;;;;;4165021;28;20443;-31
2022/04/17 06:56:54;;;;;;;0.43;0.20;;;;;;;;;;4165573;28;20108;-31
2022/04/17 06:58:55;;;;;;;0.00;0.00;;;;;;;;;;4169659;28;20107;-34
2022/04/17 07:00:56;;;;;;;0.20;0.10;;;;;;;;;;4181942;28;20095;-32
2022/04/17 07:02:57;;;;;;;0.10;0.10;;;;;;;;;;4181991;28;20741;-32
2022/04/17 07:04:58;;;;;;;0.10;0.10;;;;;;;;;;4181829;28;20476;-33
2022/04/17 07:06:59;;;;;;;0.03;0.03;;;;;;;;;;4181932;28;20496;-32
2022/04/17 07:09:01;;;;;;;0.10;0.10;;;;;;;;;;4181356;28;20061;-31
2022/04/17 07:11:02;;;;;;;0.03;0.03;;;;;;;;;;4181893;28;20057;-34
2022/04/17 07:13:04;;;;;;;0.00;0.00;;;;;;;;;;4181864;28;20053;-31
2022/04/17 07:15:06;;;;;;;0.00;0.00;;;;;;;;;;4180577;28;20064;-32
2022/04/17 07:17:07;;;;;;;0.82;0.10;;;;;;;;;;4181726;28;20057;-34
2022/04/17 07:19:09;;;;;;;0.17;0.00;;;;;;;;;;4181505;28;20076;-33
2022/04/17 07:21:10;;;;;;;0.40;0.10;;;;;;;;;;4181699;28;20079;-31
2022/04/17 07:23:11;;;;;;;0.10;0.08;;;;;;;;;;4181543;28;20110;-34
2022/04/17 07:25:13;;;;;;;0.10;0.10;;;;;;;;;;4181450;28;20057;-34
2022/04/17 07:27:16;;;;;;;0.10;0.10;;;;;;;;;;4181488;28;20053;-32
2022/04/17 07:29:21;;;;;;;0.10;0.10;;;;;;;;;;4181473;28;20053;-34
2022/04/17 07:31:22;;;;;;;0.10;0.10;;;;;;;;;;4180437;28;20053;-35
2022/04/17 07:33:24;;;;;;;0.10;0.10;;;;;;;;;;4181321;28;20056;-34
2022/04/17 07:35:26;;;;;;;0.10;0.10;;;;;;;;;;4181421;28;20543;-31
2022/04/17 07:37:27;;;;;;;0.05;0.05;;;;;;;;;;4181315;28;20052;-31
2022/04/17 07:39:29;;;;;;;0.10;0.10;;;;;;;;;;4180556;28;20558;-31
2022/04/17 07:41:30;;;;;;;0.10;0.10;;;;;;;;;;4181524;28;20118;-33
2022/04/17 07:43:32;;;;;;;0.00;0.00;;;;;;;;;;4181305;28;20467;-32
2022/04/17 07:45:33;;;;;;;0.10;0.10;;;;;;;;;;4179991;28;20115;-35
2022/04/17 07:47:35;;;;;;;0.10;0.10;;;;;;;;;;4181196;28;20394;-31
2022/04/17 07:49:36;;;;;;;0.10;0.10;;;;;;;;;;4181293;28;20071;-34
2022/04/17 07:51:37;;;;;;;0.17;0.10;;;;;;;;;;4181067;28;20098;-31
2022/04/17 07:53:39;;;;;;;0.10;0.10;;;;;;;;;;4180644;28;20057;-32
2022/04/17 07:55:40;;;;;;;0.10;0.10;;;;;;;;;;4181028;28;20103;-33
2022/04/17 08:00:03;;;;;;;0.10;0.10;;;;;;;;;;4180615;28;20113;-35
2022/04/17 08:02:21;;;;;;;;;;;;;;;;;;4181453;28;20061;-36
2022/04/17 08:04:23;;;;;;;0.08;0.00;;;;;;;;;;4180921;28;19921;-32
2022/04/17 08:06:24;;;;;;;0.00;0.00;;;;;;;;;;4180836;28;20052;-32
2022/04/17 08:08:26;;;;;;;0.10;0.10;;;;;;;;;;4180351;28;20104;-32
2022/04/17 08:10:27;;;;;;;0.08;0.08;;;;;;;;;;4180947;28;20489;-31
2022/04/17 08:12:29;;;;;;;0.10;0.10;;;;;;;;;;4180795;28;20048;-35
2022/04/17 08:14:30;;;;;;;0.28;0.17;;;;;;;;;;4180952;28;20111;-34
2022/04/17 08:16:31;;;;;;;0.20;0.10;;;;;;;;;;4180650;28;20412;-34
2022/04/17 08:18:33;;;;;;;0.13;0.10;;;;;;;;;;4180867;28;20057;-35
2022/04/17 08:20:34;;;;;;;0.00;0.00;;;;;;;;;;4180951;28;20098;-31
2022/04/17 08:22:35;;;;;;;0.00;0.00;;;;;;;;;;4180618;28;20049;-31
2022/04/17 08:24:37;;;;;;;0.08;0.08;;;;;;;;;;4180129;28;20099;-34
2022/04/17 08:26:38;;;;;;;0.08;0.08;;;;;;;;;;4180779;28;20106;-31
2022/04/17 08:28:39;;;;;;;0.10;0.10;;;;;;;;;;4180373;28;20118;-31
2022/04/17 08:30:41;;;;;;;0.00;0.00;;;;;;;;;;4180436;28;20045;-34
2022/04/17 08:32:42;;;;;;;0.10;0.10;;;;;;;;;;4180952;28;20492;-33
2022/04/17 08:34:43;;;;;;;0.10;0.10;;;;;;;;;;4180330;28;20053;-33
2022/04/17 08:36:44;;;;;;;0.20;0.10;;;;;;;;;;4180477;28;20110;-31
2022/04/17 08:38:46;;;;;;;0.17;0.10;;;;;;;;;;4178494;28;20057;-33
2022/04/17 08:40:47;;;;;;;0.05;0.05;;;;;;;;;;4179226;28;20092;-33
2022/04/17 08:42:48;;;;;;;0.05;0.05;;;;;;;;;;4180298;28;20052;-34
2022/04/17 08:44:51;;;;;;;0.20;0.10;;;;;;;;;;4180397;28;20107;-34
2022/04/17 08:46:52;;;;;;;0.25;0.20;;;;;;;;;;4180551;28;20057;-33
2022/04/17 08:48:54;;;;;;;0.00;0.00;;;;;;;;;;4180214;28;20053;-33
2022/04/17 08:50:55;;;;;;;0.10;0.10;;;;;;;;;;4178158;28;20554;-32
2022/04/17 08:52:58;;;;;;;0.10;0.10;;;;;;;;;;4180496;28;20053;-33
2022/04/17 08:55:00;;;;;;;0.10;0.00;;;;;;;;;;4179621;28;20060;-36
2022/04/17 08:57:03;;;;;;;0.10;0.00;;;;;;;;;;4180525;28;20111;-33
2022/04/17 08:59:05;;;;;;;0.10;0.03;;;;;;;;;;4179957;28;20049;-35
2022/04/17 09:01:11;;;;;;;0.10;0.10;;;;;;;;;;4179873;28;20103;-32
2022/04/17 09:03:13;;;;;;;0.10;0.10;;;;;;;;;;4178736;28;20053;-33
2022/04/17 09:05:17;;;;;;;0.10;0.10;;;;;;;;;;4180023;28;20106;-35
2022/04/17 09:07:18;;;;;;;0.20;0.10;;;;;;;;;;4180296;28;20099;-32
2022/04/17 09:09:20;;;;;;;0.10;0.10;;;;;;;;;;4178232;28;20098;-35
2022/04/17 09:11:24;;;;;;;0.00;0.00;;;;;;;;;;4179861;28;20053;-34
2022/04/17 09:13:27;;;;;;;0.00;0.00;;;;;;;;;;4179840;28;20126;-35
2022/04/17 09:15:30;;;;;;;0.10;0.10;;;;;;;;;;4179768;28;20675;-33
2022/04/17 09:17:33;;;;;;;0.00;0.00;;;;;;;;;;4179950;28;20061;-31
2022/04/17 09:19:34;;;;;;;0.10;0.10;;;;;;;;;;4178431;28;20053;-34
2022/04/17 09:21:35;;;;;;;0.15;0.10;;;;;;;;;;4180085;28;20049;-32
2022/04/17 09:23:38;;;;;;;0.10;0.10;;;;;;;;;;4179173;28;20049;-34
2022/04/17 09:25:40;;;;;;;0.10;0.10;;;;;;;;;;4179697;28;20057;-34
2022/04/17 09:28:01;;;;;;;0.10;0.10;;;;;;;;;;4180050;28;20485;-35
2022/04/17 09:30:29;;;;;;;0.10;0.10;;;;;;;;;;4179579;28;20083;-33
2022/04/17 09:32:30;;;;;;;0.15;0.00;;;;;;;;;;4179622;28;20053;-36
2022/04/17 09:34:50;;;;;;;0.00;0.00;;;;;;;;;;4179799;28;20056;-35
2022/04/17 09:36:54;;;;;;;0.05;0.05;;;;;;;;;;4179664;28;20296;-32
2022/04/17 09:39:10;;;;;;;0.10;0.10;;;;;;;;;;4177791;28;20060;-35
2022/04/17 09:41:13;;;;;;;0.40;0.10;;;;;;;;;;4179809;28;20098;-37
2022/04/17 09:43:16;;;;;;;0.10;0.00;;;;;;;;;;4178349;28;20057;-33
2022/04/17 09:45:17;;;;;;;0.00;0.00;;;;;;;;;;4179540;28;20052;-34
2022/04/17 09:47:24;;;;;;;0.47;0.10;;;;;;;;;;4179498;28;20413;-32
2022/04/17 09:49:25;;;;;;;0.20;0.10;;;;;;;;;;4179685;28;20052;-33
2022/04/17 09:51:27;;;;;;;0.15;0.08;;;;;;;;;;4179429;28;20052;-35
2022/04/17 09:53:30;;;;;;;0.30;0.10;;;;;;;;;;4179028;28;20061;-33
2022/04/17 09:55:33;;;;;;;0.30;0.10;;;;;;;;;;4179315;28;20053;-34
2022/04/17 09:57:35;;;;;;;0.10;0.00;;;;;;;;;;4162093;28;20095;-34
2022/04/17 09:59:37;;;;;;;0.15;0.10;;;;;;;;;;4179032;28;20505;-32
2022/04/17 10:01:38;;;;;;;0.00;0.00;;;;;;;;;;4179690;28;20053;-34
2022/04/17 10:03:40;;;;;;;0.25;0.10;;;;;;;;;;4182753;28;20057;-33
2022/04/17 10:05:41;;;;;;;0.10;0.10;;;;;;;;;;4182852;28;20060;-36
2022/04/17 10:07:47;;;;;;;0.00;0.00;;;;;;;;;;4164979;28;20563;-34
2022/04/17 10:09:49;;;;;;;0.22;0.10;;;;;;;;;;4182571;28;20053;-31
2022/04/17 10:11:51;;;;;;;0.00;0.00;;;;;;;;;;4182705;28;20052;-34
2022/04/17 10:13:53;;;;;;;0.08;0.08;;;;;;;;;;4181246;28;20478;-31
2022/04/17 10:15:58;;;;;;;0.10;0.10;;;;;;;;;;4182787;28;20111;-34
2022/04/17 10:17:59;;;;;;;0.30;0.10;;;;;;;;;;4182820;28;20652;-32
2022/04/17 10:20:06;;;;;;;0.10;0.10;;;;;;;;;;4181313;28;20063;-33
2022/04/17 10:22:09;;;;;;;0.00;0.00;;;;;;;;;;4182855;28;20382;-32
2022/04/17 10:24:13;;;;;;;0.30;0.10;;;;;;;;;;4164535;28;20061;-34
2022/04/17 10:26:15;;;;;;;0.10;0.10;;;;;;;;;;4182568;28;20052;-33
2022/04/17 10:28:16;;;;;;;0.20;0.13;;;;;;;;;;4182241;28;20052;-32
2022/04/17 10:30:21;;;;;;;0.00;0.00;;;;;;;;;;4181282;28;20056;-36
2022/04/17 10:32:38;;;;;;;0.20;0.10;;;;;;;;;;4182442;28;20060;-34
2022/04/17 10:35:04;;;;;;;0.20;0.20;;;;;;;;;;4182360;28;20048;-31
2022/04/17 10:37:17;;;;;;;0.13;0.10;;;;;;;;;;4182425;28;20095;-31
2022/04/17 10:39:22;;;;;;;0.00;0.00;;;;;;;;;;4180700;28;20053;-36
2022/04/17 10:41:24;;;;;;;0.17;0.10;;;;;;;;;;4182280;28;20049;-32
2022/04/17 10:43:50;;;;;;;0.20;0.10;;;;;;;;;;4180944;28;20401;-33
2022/04/17 10:46:05;;;;;;;0.10;0.10;;;;;;;;;;4182146;28;20055;-34
2022/04/17 10:48:11;;;;;;;0.05;0.05;;;;;;;;;;4181000;28;20385;-36
2022/04/17 10:50:13;;;;;;;0.10;0.08;;;;;;;;;;4182521;28;20053;-33
2022/04/17 10:52:24;;;;;;;0.20;0.10;;;;;;;;;;4179590;28;20045;-33
2022/04/17 10:54:49;;;;;;;0.20;0.10;;;;;;;;;;4161644;28;20053;-36
2022/04/17 10:56:53;;;;;;;0.00;0.00;;;;;;;;;;4180027;28;20114;-34
2022/04/17 10:59:00;;;;;;;0.10;0.10;;;;;;;;;;4179881;28;20492;-32
2022/04/17 11:01:01;;;;;;;0.15;0.10;;;;;;;;;;4179803;28;20492;-32
2022/04/17 11:03:10;;;;;;;0.10;0.10;;;;;;;;;;4180118;28;20060;-32
2022/04/17 11:05:11;;;;;;;0.10;0.00;;;;;;;;;;4179837;28;20053;-34
2022/04/17 11:07:12;;;;;;;0.05;0.05;;;;;;;;;;4178510;28;20516;-35
2022/04/17 11:09:19;;;;;;;0.10;0.10;;;;;;;;;;4179658;28;20099;-34
2022/04/17 11:11:20;;;;;;;0.10;0.10;;;;;;;;;;4179658;28;20110;-34
2022/04/17 11:13:25;;;;;;;0.00;0.00;;;;;;;;;;4179241;28;20060;-34
2022/04/17 11:15:28;;;;;;;0.32;0.10;;;;;;;;;;4179619;28;20057;-34
2022/04/17 11:17:30;;;;;;;0.15;0.08;;;;;;;;;;4179481;28;20300;-34
2022/04/17 11:19:33;;;;;;;0.13;0.10;;;;;;;;;;4178232;28;20577;-34
2022/04/17 11:21:38;;;;;;;0.20;0.10;;;;;;;;;;4180060;28;20053;-37
2022/04/17 11:23:47;;;;;;;0.00;0.00;;;;;;;;;;4161589;28;20065;-32
2022/04/17 11:25:50;;;;;;;0.20;0.20;;;;;;;;;;4179646;28;20083;-35
2022/04/17 11:27:51;;;;;;;0.00;0.00;;;;;;;;;;4179460;28;20057;-33
2022/04/17 11:29:52;;;;;;;0.03;0.00;;;;;;;;;;4179177;28;20065;-38
2022/04/17 11:31:54;;;;;;;0.03;0.03;;;;;;;;;;4179490;28;20142;-34
2022/04/17 11:34:01;;;;;;;0.20;0.10;;;;;;;;;;4161921;28;20095;-35
2022/04/17 11:36:08;;;;;;;0.10;0.00;;;;;;;;;;4178247;28;20060;-32
2022/04/17 11:38:10;;;;;;;0.10;0.10;;;;;;;;;;4179526;28;20110;-38
2022/04/17 11:40:13;;;;;;;0.10;0.10;;;;;;;;;;4176674;28;20049;-33
2022/04/17 11:42:15;;;;;;;0.08;0.08;;;;;;;;;;4164603;28;20312;-32
2022/04/17 11:44:16;;;;;;;0.10;0.10;;;;;;;;;;4164676;28;20076;-35
2022/04/17 11:46:17;;;;;;;0.20;0.10;;;;;;;;;;4164905;28;20460;-33
2022/04/17 11:48:19;;;;;;;0.00;0.00;;;;;;;;;;4164648;28;20111;-34
2022/04/17 11:50:21;;;;;;;0.13;0.10;;;;;;;;;;4164847;28;20398;-34
2022/04/17 11:52:23;;;;;;;0.00;0.00;;;;;;;;;;4163423;28;20146;-34
2022/04/17 11:54:31;;;;;;;0.10;0.10;;;;;;;;;;4164098;28;20104;-32
2022/04/17 11:57:02;;;;;;;0.08;0.08;;;;;;;;;;4163281;28;20414;-36
2022/04/17 11:59:04;;;;;;;0.05;0.05;;;;;;;;;;4160034;28;20548;-32
2022/04/17 12:01:06;;;;;;;0.10;0.10;;;;;;;;;;4164400;28;20057;-32
2022/04/17 12:03:09;;;;;;;0.00;0.00;;;;;;;;;;4164570;28;20103;-32
2022/04/17 12:05:13;;;;;;;0.30;0.08;;;;;;;;;;4163314;28;20053;-35
2022/04/17 12:07:25;;;;;;;0.20;0.10;;;;;;;;;;4164657;28;20088;-34
2022/04/17 12:09:26;;;;;;;0.10;0.10;;;;;;;;;;4164110;28;20119;-35
2022/04/17 12:11:28;;;;;;;0.70;0.10;;;;;;;;;;4164230;28;20049;-33
2022/04/17 12:13:29;;;;;;;0.10;0.10;;;;;;;;;;4163272;28;20124;-34
2022/04/17 12:15:30;;;;;;;0.00;0.00;;;;;;;;;;4163373;28;20058;-35
2022/04/17 12:17:33;;;;;;;0.20;0.20;;;;;;;;;;4164335;28;20050;-33
2022/04/17 12:19:34;;;;;;;0.00;0.00;;;;;;;;;;4164441;28;20103;-34
2022/04/17 12:21:35;;;;;;;0.05;0.00;;;;;;;;;;4164348;28;20454;-34
2022/04/17 12:23:37;;;;;;;0.10;0.10;;;;;;;;;;4166851;28;20097;-32
2022/04/17 12:25:38;;;;;;;0.10;0.10;;;;;;;;;;4179594;28;20057;-35
2022/04/17 12:27:39;;;;;;;0.20;0.10;;;;;;;;;;4179502;28;20481;-35
2022/04/17 12:29:41;;;;;;;0.60;0.10;;;;;;;;;;4179165;28;20115;-31
2022/04/17 12:31:42;;;;;;;0.15;0.08;;;;;;;;;;4180742;28;20053;-32